MXA1436 MMSM-MMGL
Flight info
| Callsign | MXA1436 |
|---|---|
| Flight time | 0h 48m |
| Altitude | 32000 |
| Route | OVAGO2F OVAGO UT123 IGSON IGSON1B |
| Aircraft | A320/M-SDE3FGHIRWY/LB1 |
Departure
| Time | 2026-05-08 02:21 |
|---|---|
| Airport | Felipe Ángeles International Airport (MMSM) |
Arrival
| Time | 2026-05-08 03:09 |
|---|---|
| Airport | Guadalajara International Airport (MMGL) |
| Time | Latitude | Longitude | Altitude | Speed | Heading |
|---|---|---|---|---|---|
| 2026-05-08 01:59 | 19.73359 | -99.02282 | 7371 ft | 0 kts | 319° |
| 2026-05-08 02:11 | 19.73356 | -99.02280 | 7371 ft | 2 kts | 319° |
| 2026-05-08 02:12 | 19.73345 | -99.02269 | 7371 ft | 2 kts | 319° |
| 2026-05-08 02:12 | 19.73335 | -99.02260 | 7371 ft | 0 kts | 319° |
| 2026-05-08 02:12 | 19.73327 | -99.02251 | 7371 ft | 2 kts | 301° |
| 2026-05-08 02:12 | 19.73321 | -99.02237 | 7371 ft | 2 kts | 279° |
| 2026-05-08 02:13 | 19.73322 | -99.02221 | 7371 ft | 2 kts | 255° |
| 2026-05-08 02:13 | 19.73327 | -99.02206 | 7371 ft | 1 kts | 233° |
| 2026-05-08 02:13 | 19.73332 | -99.02201 | 7370 ft | 1 kts | 226° |
| 2026-05-08 02:13 | 19.73333 | -99.02200 | 7370 ft | 0 kts | 228° |
| 2026-05-08 02:16 | 19.73322 | -99.02213 | 7370 ft | 5 kts | 231° |
| 2026-05-08 02:16 | 19.73304 | -99.02238 | 7370 ft | 3 kts | 227° |
| 2026-05-08 02:16 | 19.73269 | -99.02277 | 7370 ft | 9 kts | 232° |
| 2026-05-08 02:17 | 19.73228 | -99.02327 | 7371 ft | 9 kts | 229° |
| 2026-05-08 02:17 | 19.73173 | -99.02396 | 7371 ft | 11 kts | 226° |
| 2026-05-08 02:17 | 19.73132 | -99.02453 | 7371 ft | 8 kts | 211° |
| 2026-05-08 02:17 | 19.73089 | -99.02483 | 7371 ft | 6 kts | 217° |
| 2026-05-08 02:18 | 19.73048 | -99.02467 | 7371 ft | 10 kts | 141° |
| 2026-05-08 02:18 | 19.72979 | -99.02412 | 7371 ft | 12 kts | 131° |
| 2026-05-08 02:18 | 19.72925 | -99.02357 | 7371 ft | 9 kts | 139° |
| 2026-05-08 02:18 | 19.72883 | -99.02316 | 7370 ft | 7 kts | 139° |
| 2026-05-08 02:19 | 19.72876 | -99.02284 | 7370 ft | 4 kts | 46° |
| 2026-05-08 02:19 | 19.72884 | -99.02274 | 7370 ft | 0 kts | 48° |
| 2026-05-08 02:20 | 19.72903 | -99.02251 | 7370 ft | 19 kts | 48° |
| 2026-05-08 02:20 | 19.73151 | -99.01953 | 7370 ft | 85 kts | 49° |
| 2026-05-08 02:20 | 19.73680 | -99.01302 | 7370 ft | 143 kts | 47° |
| 2026-05-08 02:20 | 19.74440 | -99.00367 | 7466 ft | 183 kts | 47° |
| 2026-05-08 02:21 | 19.75244 | -98.99368 | 8157 ft | 179 kts | 47° |
| 2026-05-08 02:21 | 19.76043 | -98.98373 | 8846 ft | 177 kts | 47° |
| 2026-05-08 02:21 | 19.76843 | -98.97402 | 9453 ft | 169 kts | 46° |
| 2026-05-08 02:21 | 19.77636 | -98.96468 | 9634 ft | 179 kts | 46° |
| 2026-05-08 02:22 | 19.78541 | -98.95446 | 9665 ft | 199 kts | 45° |
| 2026-05-08 02:22 | 19.79458 | -98.94255 | 9715 ft | 220 kts | 60° |
| 2026-05-08 02:22 | 19.79782 | -98.92586 | 9653 ft | 250 kts | 99° |
| 2026-05-08 02:22 | 19.78915 | -98.90901 | 9693 ft | 276 kts | 139° |
| 2026-05-08 02:23 | 19.77136 | -98.90115 | 10144 ft | 281 kts | 176° |
| 2026-05-08 02:23 | 19.75259 | -98.90419 | 10831 ft | 275 kts | 205° |
| 2026-05-08 02:23 | 19.73722 | -98.91667 | 11079 ft | 286 kts | 229° |
| 2026-05-08 02:23 | 19.72410 | -98.93362 | 11299 ft | 301 kts | 232° |
| 2026-05-08 02:24 | 19.71048 | -98.95084 | 11716 ft | 308 kts | 227° |
| 2026-05-08 02:24 | 19.69537 | -98.96671 | 12338 ft | 306 kts | 224° |
| 2026-05-08 02:24 | 19.68039 | -98.98245 | 13169 ft | 295 kts | 224° |
| 2026-05-08 02:24 | 19.66612 | -98.99743 | 13830 ft | 292 kts | 224° |
| 2026-05-08 02:25 | 19.65118 | -99.01299 | 14102 ft | 303 kts | 224° |
| 2026-05-08 02:25 | 19.63791 | -99.02677 | 15893 ft | 248 kts | 223° |
| 2026-05-08 02:25 | 19.62508 | -99.03996 | 16219 ft | 270 kts | 223° |
| 2026-05-08 02:25 | 19.61084 | -99.05428 | 16453 ft | 294 kts | 225° |
| 2026-05-08 02:26 | 19.59717 | -99.07065 | 16945 ft | 294 kts | 235° |
| 2026-05-08 02:26 | 19.58682 | -99.08885 | 17678 ft | 283 kts | 240° |
| 2026-05-08 02:26 | 19.57754 | -99.10685 | 18355 ft | 274 kts | 241° |
| 2026-05-08 02:26 | 19.56849 | -99.12473 | 18703 ft | 278 kts | 239° |
| 2026-05-08 02:27 | 19.55881 | -99.14280 | 18889 ft | 289 kts | 240° |
| 2026-05-08 02:27 | 19.54956 | -99.16242 | 19081 ft | 300 kts | 244° |
| 2026-05-08 02:27 | 19.54143 | -99.18305 | 19264 ft | 311 kts | 246° |
| 2026-05-08 02:27 | 19.53317 | -99.20493 | 19451 ft | 321 kts | 246° |
| 2026-05-08 02:28 | 19.52483 | -99.22710 | 19634 ft | 331 kts | 246° |
| 2026-05-08 02:28 | 19.51612 | -99.25024 | 19815 ft | 342 kts | 246° |
| 2026-05-08 02:28 | 19.50715 | -99.27398 | 19994 ft | 351 kts | 246° |
| 2026-05-08 02:28 | 19.49798 | -99.29822 | 20167 ft | 361 kts | 246° |
| 2026-05-08 02:29 | 19.48849 | -99.32330 | 20340 ft | 370 kts | 246° |
| 2026-05-08 02:29 | 19.47868 | -99.34915 | 20512 ft | 380 kts | 246° |
| 2026-05-08 02:29 | 19.46881 | -99.37516 | 20676 ft | 388 kts | 246° |
| 2026-05-08 02:29 | 19.45861 | -99.40203 | 20831 ft | 397 kts | 246° |
| 2026-05-08 02:30 | 19.44813 | -99.42966 | 20983 ft | 405 kts | 246° |
| 2026-05-08 02:30 | 19.43767 | -99.45721 | 21241 ft | 409 kts | 246° |
| 2026-05-08 02:30 | 19.42697 | -99.48543 | 21606 ft | 411 kts | 245° |
| 2026-05-08 02:30 | 19.41638 | -99.51330 | 21944 ft | 412 kts | 245° |
| 2026-05-08 02:31 | 19.40558 | -99.54167 | 22257 ft | 414 kts | 245° |
| 2026-05-08 02:31 | 19.39481 | -99.56998 | 22580 ft | 416 kts | 245° |
| 2026-05-08 02:31 | 19.38395 | -99.59848 | 22917 ft | 417 kts | 245° |
| 2026-05-08 02:31 | 19.37311 | -99.62725 | 23225 ft | 419 kts | 245° |
| 2026-05-08 02:32 | 19.36245 | -99.65597 | 23518 ft | 421 kts | 245° |
| 2026-05-08 02:32 | 19.35178 | -99.68470 | 23816 ft | 422 kts | 246° |
| 2026-05-08 02:32 | 19.34093 | -99.71392 | 24115 ft | 424 kts | 246° |
| 2026-05-08 02:32 | 19.33013 | -99.74294 | 24409 ft | 426 kts | 246° |
| 2026-05-08 02:33 | 19.31928 | -99.77208 | 24682 ft | 428 kts | 246° |
| 2026-05-08 02:33 | 19.30839 | -99.80129 | 24942 ft | 430 kts | 246° |
| 2026-05-08 02:33 | 19.29734 | -99.83089 | 25232 ft | 431 kts | 246° |
| 2026-05-08 02:33 | 19.28627 | -99.86050 | 25503 ft | 433 kts | 246° |
| 2026-05-08 02:34 | 19.27513 | -99.89028 | 25754 ft | 435 kts | 246° |
| 2026-05-08 02:34 | 19.26403 | -99.91996 | 26067 ft | 435 kts | 246° |
| 2026-05-08 02:34 | 19.25295 | -99.94957 | 26777 ft | 424 kts | 246° |
| 2026-05-08 02:34 | 19.24224 | -99.97817 | 27502 ft | 414 kts | 247° |
| 2026-05-08 02:35 | 19.23179 | -100.00608 | 28228 ft | 403 kts | 247° |
| 2026-05-08 02:35 | 19.22168 | -100.03306 | 28922 ft | 393 kts | 247° |
| 2026-05-08 02:35 | 19.21157 | -100.06003 | 29366 ft | 391 kts | 247° |
| 2026-05-08 02:35 | 19.20148 | -100.08694 | 29483 ft | 397 kts | 248° |
| 2026-05-08 02:36 | 19.19336 | -100.11530 | 29473 ft | 408 kts | 258° |
| 2026-05-08 02:36 | 19.19086 | -100.14568 | 29460 ft | 419 kts | 269° |
| 2026-05-08 02:36 | 19.19434 | -100.17659 | 29447 ft | 430 kts | 281° |
| 2026-05-08 02:36 | 19.20296 | -100.20701 | 29429 ft | 440 kts | 286° |
| 2026-05-08 02:37 | 19.22306 | -100.26918 | 29587 ft | 451 kts | 287° |
| 2026-05-08 02:37 | 19.23327 | -100.30070 | 29692 ft | 455 kts | 287° |
| 2026-05-08 02:37 | 19.24355 | -100.33269 | 29863 ft | 457 kts | 287° |
| 2026-05-08 02:38 | 19.25375 | -100.36456 | 30289 ft | 453 kts | 286° |
| 2026-05-08 02:38 | 19.26371 | -100.39579 | 30745 ft | 448 kts | 286° |
| 2026-05-08 02:38 | 19.27354 | -100.42669 | 31202 ft | 443 kts | 286° |
| 2026-05-08 02:38 | 19.28326 | -100.45734 | 31658 ft | 438 kts | 286° |
| 2026-05-08 02:39 | 19.29289 | -100.48773 | 32090 ft | 434 kts | 286° |
| 2026-05-08 02:39 | 19.30261 | -100.51846 | 32204 ft | 439 kts | 286° |
| 2026-05-08 02:39 | 19.32210 | -100.58021 | 32228 ft | 450 kts | 286° |
| 2026-05-08 02:40 | 19.34227 | -100.64417 | 32231 ft | 459 kts | 286° |
| 2026-05-08 02:40 | 19.36245 | -100.70819 | 32264 ft | 459 kts | 286° |
| 2026-05-08 02:41 | 19.38373 | -100.77203 | 32289 ft | 460 kts | 287° |
| 2026-05-08 02:41 | 19.40584 | -100.83544 | 32294 ft | 459 kts | 287° |
| 2026-05-08 02:42 | 19.42790 | -100.89912 | 32242 ft | 459 kts | 287° |
| 2026-05-08 02:42 | 19.44972 | -100.96241 | 32269 ft | 459 kts | 287° |
| 2026-05-08 02:43 | 19.47165 | -101.02623 | 32250 ft | 459 kts | 287° |
| 2026-05-08 02:43 | 19.49342 | -101.08974 | 32272 ft | 459 kts | 287° |
| 2026-05-08 02:44 | 19.51528 | -101.15359 | 32302 ft | 459 kts | 287° |
| 2026-05-08 02:44 | 19.53701 | -101.21722 | 32324 ft | 459 kts | 287° |
| 2026-05-08 02:45 | 19.55873 | -101.28087 | 32365 ft | 459 kts | 287° |
| 2026-05-08 02:45 | 19.58041 | -101.34444 | 32381 ft | 459 kts | 287° |
| 2026-05-08 02:46 | 19.60201 | -101.40785 | 32401 ft | 458 kts | 287° |
| 2026-05-08 02:46 | 19.62374 | -101.47173 | 32420 ft | 458 kts | 287° |
| 2026-05-08 02:47 | 19.64523 | -101.53495 | 32435 ft | 457 kts | 287° |
| 2026-05-08 02:47 | 19.66689 | -101.59884 | 32303 ft | 458 kts | 287° |
| 2026-05-08 02:48 | 19.67751 | -101.63020 | 32050 ft | 456 kts | 287° |
| 2026-05-08 02:48 | 19.68830 | -101.66205 | 31793 ft | 454 kts | 287° |
| 2026-05-08 02:48 | 19.69891 | -101.69343 | 31544 ft | 452 kts | 287° |
| 2026-05-08 02:48 | 19.70956 | -101.72491 | 31237 ft | 450 kts | 287° |
| 2026-05-08 02:49 | 19.72014 | -101.75623 | 30677 ft | 451 kts | 287° |
| 2026-05-08 02:49 | 19.73069 | -101.78750 | 29950 ft | 452 kts | 287° |
| 2026-05-08 02:49 | 19.74133 | -101.81905 | 29123 ft | 454 kts | 287° |
| 2026-05-08 02:49 | 19.75206 | -101.85087 | 28257 ft | 457 kts | 287° |
| 2026-05-08 02:50 | 19.76267 | -101.88232 | 27659 ft | 454 kts | 287° |
| 2026-05-08 02:50 | 19.77331 | -101.91386 | 27082 ft | 451 kts | 287° |
| 2026-05-08 02:50 | 19.78381 | -101.94501 | 26505 ft | 448 kts | 287° |
| 2026-05-08 02:50 | 19.79422 | -101.97595 | 25898 ft | 446 kts | 286° |
| 2026-05-08 02:51 | 19.80461 | -102.00684 | 25304 ft | 443 kts | 286° |
| 2026-05-08 02:51 | 19.81502 | -102.03781 | 24718 ft | 441 kts | 286° |
| 2026-05-08 02:51 | 19.82518 | -102.06815 | 24138 ft | 438 kts | 286° |
| 2026-05-08 02:51 | 19.83538 | -102.09860 | 23619 ft | 434 kts | 286° |
| 2026-05-08 02:52 | 19.84543 | -102.12858 | 23379 ft | 423 kts | 286° |
| 2026-05-08 02:52 | 19.85510 | -102.15737 | 23359 ft | 406 kts | 286° |
| 2026-05-08 02:52 | 19.86441 | -102.18510 | 23359 ft | 389 kts | 286° |
| 2026-05-08 02:52 | 19.87324 | -102.21151 | 23358 ft | 373 kts | 286° |
| 2026-05-08 02:53 | 19.88172 | -102.23693 | 23361 ft | 358 kts | 286° |
| 2026-05-08 02:53 | 19.88994 | -102.26150 | 23336 ft | 344 kts | 285° |
| 2026-05-08 02:53 | 19.89779 | -102.28500 | 23104 ft | 337 kts | 285° |
| 2026-05-08 02:53 | 19.90563 | -102.30852 | 22702 ft | 337 kts | 285° |
| 2026-05-08 02:54 | 19.91346 | -102.33205 | 21993 ft | 347 kts | 285° |
| 2026-05-08 02:54 | 19.92157 | -102.35651 | 21327 ft | 354 kts | 286° |
| 2026-05-08 02:54 | 19.92981 | -102.38121 | 20873 ft | 354 kts | 286° |
| 2026-05-08 02:54 | 19.93809 | -102.40597 | 20489 ft | 350 kts | 287° |
| 2026-05-08 02:55 | 19.94612 | -102.42999 | 19909 ft | 346 kts | 287° |
| 2026-05-08 02:55 | 19.96197 | -102.47761 | 18485 ft | 342 kts | 288° |
| 2026-05-08 02:55 | 19.96988 | -102.50145 | 17800 ft | 339 kts | 288° |
| 2026-05-08 02:56 | 19.97766 | -102.52483 | 17308 ft | 331 kts | 288° |
| 2026-05-08 02:56 | 19.98524 | -102.54758 | 16888 ft | 327 kts | 288° |
| 2026-05-08 02:56 | 19.99274 | -102.57012 | 16490 ft | 324 kts | 288° |
| 2026-05-08 02:56 | 20.00062 | -102.59282 | 16047 ft | 328 kts | 294° |
| 2026-05-08 02:57 | 20.01353 | -102.61269 | 15262 ft | 334 kts | 314° |
| 2026-05-08 02:57 | 20.03028 | -102.63007 | 14246 ft | 341 kts | 316° |
| 2026-05-08 02:57 | 20.04746 | -102.64774 | 13133 ft | 350 kts | 316° |
| 2026-05-08 02:57 | 20.06489 | -102.66575 | 11950 ft | 357 kts | 315° |
| 2026-05-08 02:58 | 20.08274 | -102.68429 | 10887 ft | 357 kts | 314° |
| 2026-05-08 02:58 | 20.10016 | -102.70248 | 10095 ft | 349 kts | 314° |
| 2026-05-08 02:58 | 20.11707 | -102.72018 | 9534 ft | 333 kts | 313° |
| 2026-05-08 02:58 | 20.13315 | -102.73710 | 9225 ft | 311 kts | 314° |
| 2026-05-08 02:59 | 20.14801 | -102.75274 | 9181 ft | 294 kts | 313° |
| 2026-05-08 02:59 | 20.16246 | -102.76799 | 9180 ft | 292 kts | 313° |
| 2026-05-08 02:59 | 20.17699 | -102.78333 | 9183 ft | 292 kts | 313° |
| 2026-05-08 02:59 | 20.19127 | -102.79841 | 9181 ft | 292 kts | 313° |
| 2026-05-08 03:00 | 20.20588 | -102.81382 | 9176 ft | 291 kts | 313° |
| 2026-05-08 03:00 | 20.22020 | -102.82891 | 9176 ft | 291 kts | 313° |
| 2026-05-08 03:00 | 20.23466 | -102.84417 | 9175 ft | 291 kts | 313° |
| 2026-05-08 03:00 | 20.24924 | -102.85957 | 9167 ft | 292 kts | 313° |
| 2026-05-08 03:01 | 20.26361 | -102.87472 | 9167 ft | 291 kts | 313° |
| 2026-05-08 03:01 | 20.27806 | -102.88998 | 9171 ft | 291 kts | 313° |
| 2026-05-08 03:01 | 20.29256 | -102.90531 | 9173 ft | 292 kts | 313° |
| 2026-05-08 03:01 | 20.30697 | -102.92053 | 9168 ft | 292 kts | 313° |
| 2026-05-08 03:02 | 20.32146 | -102.93584 | 9169 ft | 291 kts | 313° |
| 2026-05-08 03:02 | 20.33590 | -102.95113 | 9168 ft | 292 kts | 313° |
| 2026-05-08 03:02 | 20.35034 | -102.96638 | 9166 ft | 287 kts | 313° |
| 2026-05-08 03:02 | 20.36417 | -102.98098 | 9169 ft | 274 kts | 313° |
| 2026-05-08 03:03 | 20.37738 | -102.99496 | 9169 ft | 259 kts | 312° |
| 2026-05-08 03:03 | 20.38977 | -103.00856 | 9168 ft | 251 kts | 308° |
| 2026-05-08 03:03 | 20.39997 | -103.02343 | 9167 ft | 248 kts | 297° |
| 2026-05-08 03:03 | 20.40798 | -103.03964 | 9168 ft | 247 kts | 293° |
| 2026-05-08 03:04 | 20.41526 | -103.05635 | 9079 ft | 244 kts | 292° |
| 2026-05-08 03:04 | 20.42213 | -103.07279 | 8823 ft | 243 kts | 292° |
| 2026-05-08 03:04 | 20.42898 | -103.08932 | 8547 ft | 243 kts | 292° |
| 2026-05-08 03:04 | 20.43582 | -103.10583 | 8271 ft | 242 kts | 292° |
| 2026-05-08 03:05 | 20.44267 | -103.12228 | 7989 ft | 242 kts | 292° |
| 2026-05-08 03:05 | 20.44949 | -103.13862 | 7710 ft | 241 kts | 292° |
| 2026-05-08 03:05 | 20.45628 | -103.15484 | 7426 ft | 237 kts | 292° |
| 2026-05-08 03:05 | 20.46284 | -103.17052 | 7150 ft | 228 kts | 293° |
| 2026-05-08 03:06 | 20.46917 | -103.18562 | 6887 ft | 218 kts | 293° |
| 2026-05-08 03:06 | 20.47524 | -103.20012 | 6672 ft | 209 kts | 293° |
| 2026-05-08 03:06 | 20.48094 | -103.21371 | 6484 ft | 191 kts | 293° |
| 2026-05-08 03:06 | 20.48614 | -103.22610 | 6262 ft | 174 kts | 294° |
| 2026-05-08 03:07 | 20.49090 | -103.23746 | 6020 ft | 159 kts | 294° |
| 2026-05-08 03:07 | 20.49516 | -103.24761 | 5816 ft | 144 kts | 294° |
| 2026-05-08 03:07 | 20.49918 | -103.25719 | 5660 ft | 140 kts | 293° |
| 2026-05-08 03:07 | 20.50318 | -103.26672 | 5515 ft | 140 kts | 293° |
| 2026-05-08 03:08 | 20.50711 | -103.27625 | 5359 ft | 139 kts | 293° |
| 2026-05-08 03:08 | 20.51118 | -103.28570 | 5192 ft | 139 kts | 294° |
| 2026-05-08 03:08 | 20.51516 | -103.29507 | 5038 ft | 139 kts | 294° |
| 2026-05-08 03:08 | 20.51874 | -103.30370 | 5033 ft | 109 kts | 292° |
| 2026-05-08 03:09 | 20.52121 | -103.30968 | 5034 ft | 59 kts | 294° |
| 2026-05-08 03:09 | 20.52268 | -103.31312 | 5034 ft | 40 kts | 291° |
| 2026-05-08 03:09 | 20.52390 | -103.31499 | 5035 ft | 25 kts | 319° |
| 2026-05-08 03:09 | 20.52519 | -103.31593 | 5035 ft | 19 kts | 348° |
| 2026-05-08 03:10 | 20.52636 | -103.31556 | 5035 ft | 16 kts | 24° |
| 2026-05-08 03:10 | 20.52716 | -103.31517 | 5034 ft | 7 kts | 25° |
| 2026-05-08 03:10 | 20.52719 | -103.31516 | 5034 ft | 0 kts | 24° |
| 2026-05-08 03:11 | 20.52722 | -103.31515 | 5034 ft | 2 kts | 24° |
| 2026-05-08 03:11 | 20.52754 | -103.31491 | 5033 ft | 6 kts | 57° |
| 2026-05-08 03:11 | 20.52759 | -103.31443 | 5032 ft | 6 kts | 105° |
| 2026-05-08 03:11 | 20.52743 | -103.31405 | 5032 ft | 5 kts | 113° |
| 2026-05-08 03:12 | 20.52712 | -103.31332 | 5032 ft | 12 kts | 113° |
| 2026-05-08 03:12 | 20.52680 | -103.31252 | 5031 ft | 11 kts | 114° |
| 2026-05-08 03:12 | 20.52645 | -103.31170 | 5032 ft | 15 kts | 114° |
| 2026-05-08 03:12 | 20.52598 | -103.31062 | 5031 ft | 15 kts | 114° |
| 2026-05-08 03:13 | 20.52555 | -103.30957 | 5030 ft | 16 kts | 115° |
| 2026-05-08 03:13 | 20.52511 | -103.30853 | 5028 ft | 14 kts | 112° |
| 2026-05-08 03:13 | 20.52493 | -103.30752 | 5028 ft | 12 kts | 71° |
| 2026-05-08 03:13 | 20.52521 | -103.30669 | 5028 ft | 11 kts | 70° |
| 2026-05-08 03:14 | 20.52549 | -103.30600 | 5027 ft | 6 kts | 37° |
| 2026-05-08 03:14 | 20.52597 | -103.30608 | 5026 ft | 7 kts | 337° |
| 2026-05-08 03:14 | 20.52611 | -103.30644 | 5026 ft | 5 kts | 262° |
| 2026-05-08 03:14 | 20.52608 | -103.30674 | 5026 ft | 2 kts | 262° |
| 2026-05-08 03:15 | 20.52608 | -103.30675 | 5026 ft | 0 kts | 262° |